sensor_id;sensor_type;location;lat;lon;timestamp;temperature;humidity
584;HTU21D;27024;54.068;12.116;2023-02-11T00:01:11;5.41;110.94
584;HTU21D;27024;54.068;12.116;2023-02-11T00:03:38;5.36;111.45
584;HTU21D;27024;54.068;12.116;2023-02-11T00:06:07;5.31;112.02
584;HTU21D;27024;54.068;12.116;2023-02-11T00:08:37;5.33;112.33
584;HTU21D;27024;54.068;12.116;2023-02-11T00:11:04;5.36;112.51
584;HTU21D;27024;54.068;12.116;2023-02-11T00:13:31;5.35;112.76
584;HTU21D;27024;54.068;12.116;2023-02-11T00:15:58;5.35;112.93
584;HTU21D;27024;54.068;12.116;2023-02-11T00:18:25;5.36;112.97
584;HTU21D;27024;54.068;12.116;2023-02-11T00:20:52;5.40;112.69
584;HTU21D;27024;54.068;12.116;2023-02-11T00:23:18;5.41;113.09
584;HTU21D;27024;54.068;12.116;2023-02-11T00:25:45;5.42;113.31
584;HTU21D;27024;54.068;12.116;2023-02-11T00:28:12;5.47;113.32
584;HTU21D;27024;54.068;12.116;2023-02-11T00:30:39;5.47;113.51
584;HTU21D;27024;54.068;12.116;2023-02-11T00:33:06;5.50;113.69
584;HTU21D;27024;54.068;12.116;2023-02-11T00:35:36;5.45;114.41
584;HTU21D;27024;54.068;12.116;2023-02-11T00:38:03;5.48;114.31
584;HTU21D;27024;54.068;12.116;2023-02-11T00:40:30;5.50;114.93
584;HTU21D;27024;54.068;12.116;2023-02-11T00:42:56;5.54;114.95
584;HTU21D;27024;54.068;12.116;2023-02-11T00:45:23;5.51;115.50
584;HTU21D;27024;54.068;12.116;2023-02-11T00:47:50;5.49;115.86
584;HTU21D;27024;54.068;12.116;2023-02-11T00:50:17;5.57;115.60
584;HTU21D;27024;54.068;12.116;2023-02-11T00:52:44;5.47;116.00
584;HTU21D;27024;54.068;12.116;2023-02-11T00:55:10;5.50;116.01
584;HTU21D;27024;54.068;12.116;2023-02-11T00:57:37;5.56;115.64
584;HTU21D;27024;54.068;12.116;2023-02-11T01:00:05;5.65;115.48
584;HTU21D;27024;54.068;12.116;2023-02-11T01:02:32;5.67;115.27
584;HTU21D;27024;54.068;12.116;2023-02-11T01:04:59;5.65;115.36
584;HTU21D;27024;54.068;12.116;2023-02-11T01:07:27;5.62;115.80
584;HTU21D;27024;54.068;12.116;2023-02-11T01:09:54;5.66;115.87
584;HTU21D;27024;54.068;12.116;2023-02-11T01:12:22;5.69;115.83
584;HTU21D;27024;54.068;12.116;2023-02-11T01:14:49;5.72;115.58
584;HTU21D;27024;54.068;12.116;2023-02-11T01:17:16;5.69;116.00
584;HTU21D;27024;54.068;12.116;2023-02-11T01:19:43;5.76;115.82
584;HTU21D;27024;54.068;12.116;2023-02-11T01:22:10;5.78;115.74
584;HTU21D;27024;54.068;12.116;2023-02-11T01:24:36;5.76;116.06
584;HTU21D;27024;54.068;12.116;2023-02-11T01:27:03;5.81;116.22
584;HTU21D;27024;54.068;12.116;2023-02-11T01:29:30;5.82;115.96
584;HTU21D;27024;54.068;12.116;2023-02-11T01:31:59;5.78;116.12
584;HTU21D;27024;54.068;12.116;2023-02-11T01:34:26;5.79;116.22
584;HTU21D;27024;54.068;12.116;2023-02-11T01:36:57;5.86;115.75
584;HTU21D;27024;54.068;12.116;2023-02-11T01:39:25;5.85;115.73
584;HTU21D;27024;54.068;12.116;2023-02-11T01:41:53;5.86;115.86
584;HTU21D;27024;54.068;12.116;2023-02-11T01:44:32;5.93;115.82
584;HTU21D;27024;54.068;12.116;2023-02-11T01:47:00;5.86;116.03
584;HTU21D;27024;54.068;12.116;2023-02-11T01:49:32;5.86;116.15
584;HTU21D;27024;54.068;12.116;2023-02-11T01:52:22;5.93;116.42
584;HTU21D;27024;54.068;12.116;2023-02-11T01:54:53;5.95;116.45
584;HTU21D;27024;54.068;12.116;2023-02-11T01:57:42;5.95;116.67
584;HTU21D;27024;54.068;12.116;2023-02-11T02:00:22;5.99;116.67
584;HTU21D;27024;54.068;12.116;2023-02-11T02:03:07;5.98;116.69
584;HTU21D;27024;54.068;12.116;2023-02-11T02:08:27;5.97;117.22
584;HTU21D;27024;54.068;12.116;2023-02-11T02:10:55;5.95;117.87
584;HTU21D;27024;54.068;12.116;2023-02-11T02:13:24;5.94;118.17
584;HTU21D;27024;54.068;12.116;2023-02-11T02:15:52;5.86;118.71
584;HTU21D;27024;54.068;12.116;2023-02-11T02:24:36;5.97;118.71
584;HTU21D;27024;54.068;12.116;2023-02-11T02:40:56;5.87;118.99
584;HTU21D;27024;54.068;12.116;2023-02-11T02:43:26;5.82;118.99
584;HTU21D;27024;54.068;12.116;2023-02-11T02:45:53;5.84;118.99
584;HTU21D;27024;54.068;12.116;2023-02-11T02:48:31;5.86;118.99
584;HTU21D;27024;54.068;12.116;2023-02-11T02:51:10;5.84;118.99
584;HTU21D;27024;54.068;12.116;2023-02-11T02:53:54;5.82;118.99
584;HTU21D;27024;54.068;12.116;2023-02-11T02:56:43;5.82;118.99
584;HTU21D;27024;54.068;12.116;2023-02-11T02:59:14;5.75;118.99
584;HTU21D;27024;54.068;12.116;2023-02-11T03:04:45;5.80;118.99
584;HTU21D;27024;54.068;12.116;2023-02-11T03:07:27;5.76;118.99
584;HTU21D;27024;54.068;12.116;2023-02-11T03:10:16;5.78;118.99
584;HTU21D;27024;54.068;12.116;2023-02-11T03:12:46;5.85;118.99
584;HTU21D;27024;54.068;12.116;2023-02-11T03:15:15;5.81;118.99
584;HTU21D;27024;54.068;12.116;2023-02-11T03:17:46;5.78;118.99
584;HTU21D;27024;54.068;12.116;2023-02-11T03:20:16;5.74;118.99
584;HTU21D;27024;54.068;12.116;2023-02-11T03:25:54;5.72;118.99
584;HTU21D;27024;54.068;12.116;2023-02-11T03:31:16;5.67;118.99
584;HTU21D;27024;54.068;12.116;2023-02-11T03:33:58;5.69;118.99
584;HTU21D;27024;54.068;12.116;2023-02-11T03:36:48;5.72;118.99
584;HTU21D;27024;54.068;12.116;2023-02-11T03:39:34;5.75;118.99
584;HTU21D;27024;54.068;12.116;2023-02-11T03:42:02;5.77;118.99
584;HTU21D;27024;54.068;12.116;2023-02-11T03:44:39;5.83;118.99
584;HTU21D;27024;54.068;12.116;2023-02-11T03:47:08;5.86;118.99
584;HTU21D;27024;54.068;12.116;2023-02-11T03:49:38;5.86;118.99
584;HTU21D;27024;54.068;12.116;2023-02-11T03:52:07;5.84;118.99
584;HTU21D;27024;54.068;12.116;2023-02-11T03:54:38;5.87;118.99
584;HTU21D;27024;54.068;12.116;2023-02-11T03:57:06;5.91;118.99
584;HTU21D;27024;54.068;12.116;2023-02-11T03:59:49;5.93;118.99
584;HTU21D;27024;54.068;12.116;2023-02-11T04:02:15;5.91;118.99
584;HTU21D;27024;54.068;12.116;2023-02-11T04:04:42;5.96;118.99
584;HTU21D;27024;54.068;12.116;2023-02-11T04:07:11;6.00;118.99
584;HTU21D;27024;54.068;12.116;2023-02-11T04:09:38;6.00;118.99
584;HTU21D;27024;54.068;12.116;2023-02-11T04:12:05;5.96;118.99
584;HTU21D;27024;54.068;12.116;2023-02-11T04:14:32;6.00;118.99
584;HTU21D;27024;54.068;12.116;2023-02-11T04:16:58;6.01;118.99
584;HTU21D;27024;54.068;12.116;2023-02-11T04:19:25;6.01;118.99
584;HTU21D;27024;54.068;12.116;2023-02-11T04:21:52;6.05;118.99
584;HTU21D;27024;54.068;12.116;2023-02-11T04:24:19;6.06;118.99
584;HTU21D;27024;54.068;12.116;2023-02-11T04:26:46;6.04;118.99
584;HTU21D;27024;54.068;12.116;2023-02-11T04:29:12;6.02;118.99
584;HTU21D;27024;54.068;12.116;2023-02-11T04:31:39;6.07;118.99
584;HTU21D;27024;54.068;12.116;2023-02-11T04:34:06;6.10;118.99
584;HTU21D;27024;54.068;12.116;2023-02-11T04:36:32;6.06;118.99
584;HTU21D;27024;54.068;12.116;2023-02-11T04:38:59;6.05;118.99
584;HTU21D;27024;54.068;12.116;2023-02-11T04:41:26;6.07;118.99
584;HTU21D;27024;54.068;12.116;2023-02-11T04:43:53;5.99;118.99
584;HTU21D;27024;54.068;12.116;2023-02-11T04:46:19;6.02;118.99
584;HTU21D;27024;54.068;12.116;2023-02-11T04:48:46;6.05;118.99
584;HTU21D;27024;54.068;12.116;2023-02-11T04:51:13;6.13;118.99
584;HTU21D;27024;54.068;12.116;2023-02-11T04:53:40;6.15;118.99
584;HTU21D;27024;54.068;12.116;2023-02-11T04:56:07;6.14;118.99
584;HTU21D;27024;54.068;12.116;2023-02-11T04:58:33;6.21;118.99
584;HTU21D;27024;54.068;12.116;2023-02-11T05:01:11;6.22;118.99
584;HTU21D;27024;54.068;12.116;2023-02-11T05:03:39;6.16;118.99
584;HTU21D;27024;54.068;12.116;2023-02-11T05:06:06;6.19;118.99
584;HTU21D;27024;54.068;12.116;2023-02-11T05:08:33;6.21;118.99
584;HTU21D;27024;54.068;12.116;2023-02-11T05:10:59;6.23;118.99
584;HTU21D;27024;54.068;12.116;2023-02-11T05:13:28;6.25;118.99
584;HTU21D;27024;54.068;12.116;2023-02-11T05:15:55;6.24;118.99
584;HTU21D;27024;54.068;12.116;2023-02-11T05:18:22;6.28;118.99
584;HTU21D;27024;54.068;12.116;2023-02-11T05:20:49;6.29;118.99
584;HTU21D;27024;54.068;12.116;2023-02-11T05:23:16;6.39;118.99
584;HTU21D;27024;54.068;12.116;2023-02-11T05:25:43;6.33;118.99
584;HTU21D;27024;54.068;12.116;2023-02-11T05:28:09;6.36;118.99
584;HTU21D;27024;54.068;12.116;2023-02-11T05:30:36;6.35;118.99
584;HTU21D;27024;54.068;12.116;2023-02-11T05:33:03;6.37;118.99
584;HTU21D;27024;54.068;12.116;2023-02-11T05:35:30;6.39;118.99
584;HTU21D;27024;54.068;12.116;2023-02-11T05:37:56;6.41;118.99
584;HTU21D;27024;54.068;12.116;2023-02-11T05:40:23;6.51;118.99
584;HTU21D;27024;54.068;12.116;2023-02-11T05:42:50;6.46;118.99
584;HTU21D;27024;54.068;12.116;2023-02-11T05:45:17;6.42;118.99
584;HTU21D;27024;54.068;12.116;2023-02-11T05:47:43;6.44;118.99
584;HTU21D;27024;54.068;12.116;2023-02-11T05:50:10;6.49;118.99
584;HTU21D;27024;54.068;12.116;2023-02-11T05:52:37;6.50;118.99
584;HTU21D;27024;54.068;12.116;2023-02-11T05:55:04;6.55;118.99
584;HTU21D;27024;54.068;12.116;2023-02-11T05:57:31;6.54;118.99
584;HTU21D;27024;54.068;12.116;2023-02-11T05:59:58;6.59;118.99
584;HTU21D;27024;54.068;12.116;2023-02-11T06:02:25;6.64;118.99
584;HTU21D;27024;54.068;12.116;2023-02-11T06:04:52;6.61;118.99
584;HTU21D;27024;54.068;12.116;2023-02-11T06:07:18;6.61;118.99
584;HTU21D;27024;54.068;12.116;2023-02-11T06:09:45;6.66;118.99
584;HTU21D;27024;54.068;12.116;2023-02-11T06:12:12;6.65;118.99
584;HTU21D;27024;54.068;12.116;2023-02-11T06:14:38;6.65;118.99
584;HTU21D;27024;54.068;12.116;2023-02-11T06:17:05;6.65;118.99
584;HTU21D;27024;54.068;12.116;2023-02-11T06:19:32;6.67;118.99
584;HTU21D;27024;54.068;12.116;2023-02-11T06:21:59;6.73;118.99
584;HTU21D;27024;54.068;12.116;2023-02-11T06:24:26;6.74;118.99
584;HTU21D;27024;54.068;12.116;2023-02-11T06:27:13;6.76;118.99
584;HTU21D;27024;54.068;12.116;2023-02-11T06:29:39;6.75;118.99
584;HTU21D;27024;54.068;12.116;2023-02-11T06:32:06;6.84;118.99
584;HTU21D;27024;54.068;12.116;2023-02-11T06:34:48;6.79;118.99
584;HTU21D;27024;54.068;12.116;2023-02-11T06:37:15;6.75;118.99
584;HTU21D;27024;54.068;12.116;2023-02-11T06:39:43;6.79;118.99
584;HTU21D;27024;54.068;12.116;2023-02-11T06:42:10;6.79;118.99
584;HTU21D;27024;54.068;12.116;2023-02-11T06:44:37;6.89;118.99
584;HTU21D;27024;54.068;12.116;2023-02-11T06:47:04;6.85;118.99
584;HTU21D;27024;54.068;12.116;2023-02-11T06:49:31;6.83;118.99
584;HTU21D;27024;54.068;12.116;2023-02-11T06:51:58;6.80;118.99
584;HTU21D;27024;54.068;12.116;2023-02-11T06:54:25;6.83;118.99
584;HTU21D;27024;54.068;12.116;2023-02-11T06:56:52;6.87;118.99
584;HTU21D;27024;54.068;12.116;2023-02-11T06:59:19;6.89;118.99
584;HTU21D;27024;54.068;12.116;2023-02-11T07:01:46;6.89;118.99
584;HTU21D;27024;54.068;12.116;2023-02-11T07:04:13;6.89;118.99
584;HTU21D;27024;54.068;12.116;2023-02-11T07:06:41;6.90;118.99
584;HTU21D;27024;54.068;12.116;2023-02-11T07:09:08;6.95;118.99
584;HTU21D;27024;54.068;12.116;2023-02-11T07:11:34;6.99;118.99
584;HTU21D;27024;54.068;12.116;2023-02-11T07:14:06;7.00;118.99
584;HTU21D;27024;54.068;12.116;2023-02-11T07:16:37;7.07;118.99
584;HTU21D;27024;54.068;12.116;2023-02-11T07:19:04;6.98;118.99
584;HTU21D;27024;54.068;12.116;2023-02-11T07:21:30;6.98;118.99
584;HTU21D;27024;54.068;12.116;2023-02-11T07:23:57;7.01;118.99
584;HTU21D;27024;54.068;12.116;2023-02-11T07:26:24;6.97;118.99
584;HTU21D;27024;54.068;12.116;2023-02-11T07:28:54;7.02;118.99
584;HTU21D;27024;54.068;12.116;2023-02-11T07:31:26;7.05;118.99
584;HTU21D;27024;54.068;12.116;2023-02-11T07:33:54;7.07;118.99
584;HTU21D;27024;54.068;12.116;2023-02-11T07:36:21;7.05;118.99
584;HTU21D;27024;54.068;12.116;2023-02-11T07:38:48;7.08;118.99
584;HTU21D;27024;54.068;12.116;2023-02-11T07:41:18;7.14;118.99
584;HTU21D;27024;54.068;12.116;2023-02-11T07:43:46;7.13;118.99
584;HTU21D;27024;54.068;12.116;2023-02-11T07:46:16;7.11;118.99
584;HTU21D;27024;54.068;12.116;2023-02-11T07:48:43;7.18;118.99
584;HTU21D;27024;54.068;12.116;2023-02-11T07:51:20;7.23;118.99
584;HTU21D;27024;54.068;12.116;2023-02-11T07:53:48;7.24;118.99
584;HTU21D;27024;54.068;12.116;2023-02-11T07:56:17;7.26;118.99
584;HTU21D;27024;54.068;12.116;2023-02-11T07:58:44;7.28;118.99
584;HTU21D;27024;54.068;12.116;2023-02-11T08:01:18;7.33;118.99
584;HTU21D;27024;54.068;12.116;2023-02-11T08:03:44;7.31;118.99
584;HTU21D;27024;54.068;12.116;2023-02-11T08:06:14;7.32;118.99
584;HTU21D;27024;54.068;12.116;2023-02-11T08:08:42;7.26;118.99
584;HTU21D;27024;54.068;12.116;2023-02-11T08:11:14;7.54;118.99
584;HTU21D;27024;54.068;12.116;2023-02-11T08:13:44;7.56;118.99
584;HTU21D;27024;54.068;12.116;2023-02-11T08:16:21;7.47;118.99
584;HTU21D;27024;54.068;12.116;2023-02-11T08:18:49;7.53;118.99
584;HTU21D;27024;54.068;12.116;2023-02-11T08:21:16;7.50;118.99
584;HTU21D;27024;54.068;12.116;2023-02-11T08:23:43;7.53;118.99
584;HTU21D;27024;54.068;12.116;2023-02-11T08:26:13;7.56;118.99
584;HTU21D;27024;54.068;12.116;2023-02-11T08:28:42;7.61;118.99
584;HTU21D;27024;54.068;12.116;2023-02-11T08:31:12;7.72;118.99
584;HTU21D;27024;54.068;12.116;2023-02-11T08:33:39;7.69;118.99
584;HTU21D;27024;54.068;12.116;2023-02-11T08:36:11;7.67;118.99
584;HTU21D;27024;54.068;12.116;2023-02-11T08:38:38;7.75;118.99
584;HTU21D;27024;54.068;12.116;2023-02-11T08:41:05;7.77;118.99
584;HTU21D;27024;54.068;12.116;2023-02-11T08:43:32;7.79;118.99
584;HTU21D;27024;54.068;12.116;2023-02-11T08:46:00;7.84;118.99
584;HTU21D;27024;54.068;12.116;2023-02-11T08:48:28;7.83;118.99
584;HTU21D;27024;54.068;12.116;2023-02-11T08:50:56;7.88;118.99
584;HTU21D;27024;54.068;12.116;2023-02-11T08:53:22;7.93;118.99
584;HTU21D;27024;54.068;12.116;2023-02-11T08:55:50;7.99;118.99
584;HTU21D;27024;54.068;12.116;2023-02-11T08:58:18;7.93;118.99
584;HTU21D;27024;54.068;12.116;2023-02-11T09:00:46;8.07;118.99
584;HTU21D;27024;54.068;12.116;2023-02-11T09:03:14;8.20;118.99
584;HTU21D;27024;54.068;12.116;2023-02-11T09:05:42;8.24;118.99
584;HTU21D;27024;54.068;12.116;2023-02-11T09:08:09;8.27;118.99
584;HTU21D;27024;54.068;12.116;2023-02-11T09:10:36;8.20;118.99
584;HTU21D;27024;54.068;12.116;2023-02-11T09:13:04;8.22;118.99
584;HTU21D;27024;54.068;12.116;2023-02-11T09:15:31;8.22;118.99
584;HTU21D;27024;54.068;12.116;2023-02-11T09:17:58;8.35;118.99
584;HTU21D;27024;54.068;12.116;2023-02-11T09:20:26;8.20;118.99
584;HTU21D;27024;54.068;12.116;2023-02-11T09:22:56;8.27;118.99
584;HTU21D;27024;54.068;12.116;2023-02-11T09:25:23;8.33;118.99
584;HTU21D;27024;54.068;12.116;2023-02-11T09:27:50;8.61;118.99
584;HTU21D;27024;54.068;12.116;2023-02-11T09:30:20;8.89;117.75
584;HTU21D;27024;54.068;12.116;2023-02-11T09:32:47;8.77;117.66
584;HTU21D;27024;54.068;12.116;2023-02-11T09:35:13;8.80;117.61
584;HTU21D;27024;54.068;12.116;2023-02-11T09:37:40;8.83;117.00
584;HTU21D;27024;54.068;12.116;2023-02-11T09:40:08;8.88;117.05
584;HTU21D;27024;54.068;12.116;2023-02-11T09:45:30;8.86;116.80
584;HTU21D;27024;54.068;12.116;2023-02-11T09:48:01;8.85;117.41
584;HTU21D;27024;54.068;12.116;2023-02-11T09:50:38;8.91;116.31
584;HTU21D;27024;54.068;12.116;2023-02-11T09:55:53;8.93;116.42
584;HTU21D;27024;54.068;12.116;2023-02-11T09:58:26;9.10;116.09
584;HTU21D;27024;54.068;12.116;2023-02-11T10:01:16;8.95;116.77
584;HTU21D;27024;54.068;12.116;2023-02-11T10:03:56;8.93;116.56
584;HTU21D;27024;54.068;12.116;2023-02-11T10:23:22;8.83;117.59
584;HTU21D;27024;54.068;12.116;2023-02-11T10:25:52;8.75;118.84
584;HTU21D;27024;54.068;12.116;2023-02-11T10:28:33;8.77;118.24
584;HTU21D;27024;54.068;12.116;2023-02-11T10:36:15;8.79;118.63
584;HTU21D;27024;54.068;12.116;2023-02-11T10:38:43;8.89;117.74
584;HTU21D;27024;54.068;12.116;2023-02-11T10:41:16;8.97;116.86
584;HTU21D;27024;54.068;12.116;2023-02-11T10:43:45;8.96;118.09
584;HTU21D;27024;54.068;12.116;2023-02-11T10:46:16;8.97;116.98
584;HTU21D;27024;54.068;12.116;2023-02-11T10:48:47;8.95;116.54
584;HTU21D;27024;54.068;12.116;2023-02-11T10:51:23;8.92;116.76
584;HTU21D;27024;54.068;12.116;2023-02-11T10:56:34;9.11;115.86
584;HTU21D;27024;54.068;12.116;2023-02-11T10:59:26;9.01;116.42
584;HTU21D;27024;54.068;12.116;2023-02-11T11:02:00;9.03;116.60
584;HTU21D;27024;54.068;12.116;2023-02-11T11:04:42;9.17;115.70
584;HTU21D;27024;54.068;12.116;2023-02-11T11:07:20;9.18;115.51
584;HTU21D;27024;54.068;12.116;2023-02-11T11:10:42;9.15;116.06
584;HTU21D;27024;54.068;12.116;2023-02-11T11:13:27;9.21;115.72
584;HTU21D;27024;54.068;12.116;2023-02-11T11:18:41;9.20;115.33
584;HTU21D;27024;54.068;12.116;2023-02-11T11:21:39;9.19;115.25
584;HTU21D;27024;54.068;12.116;2023-02-11T11:26:53;9.01;116.60
584;HTU21D;27024;54.068;12.116;2023-02-11T11:29:26;9.06;116.17
584;HTU21D;27024;54.068;12.116;2023-02-11T11:31:58;9.18;115.83
584;HTU21D;27024;54.068;12.116;2023-02-11T11:34:33;9.15;115.93
584;HTU21D;27024;54.068;12.116;2023-02-11T11:37:10;9.20;116.46
584;HTU21D;27024;54.068;12.116;2023-02-11T11:39:38;9.24;116.18
584;HTU21D;27024;54.068;12.116;2023-02-11T11:42:24;9.11;117.01
584;HTU21D;27024;54.068;12.116;2023-02-11T11:45:42;9.11;116.76
584;HTU21D;27024;54.068;12.116;2023-02-11T11:50:31;9.23;115.95
584;HTU21D;27024;54.068;12.116;2023-02-11T11:53:04;9.26;116.19
584;HTU21D;27024;54.068;12.116;2023-02-11T11:55:48;9.35;115.98
584;HTU21D;27024;54.068;12.116;2023-02-11T11:58:19;9.52;114.73
584;HTU21D;27024;54.068;12.116;2023-02-11T12:01:16;9.62;113.77
584;HTU21D;27024;54.068;12.116;2023-02-11T12:04:01;9.54;113.93
584;HTU21D;27024;54.068;12.116;2023-02-11T12:17:43;9.67;112.97
584;HTU21D;27024;54.068;12.116;2023-02-11T12:23:39;9.57;113.67
584;HTU21D;27024;54.068;12.116;2023-02-11T12:26:17;9.56;113.26
584;HTU21D;27024;54.068;12.116;2023-02-11T12:31:32;9.83;111.42
584;HTU21D;27024;54.068;12.116;2023-02-11T12:40:02;9.72;110.61
584;HTU21D;27024;54.068;12.116;2023-02-11T12:48:32;9.56;111.97
584;HTU21D;27024;54.068;12.116;2023-02-11T12:51:54;9.65;111.33
584;HTU21D;27024;54.068;12.116;2023-02-11T12:54:16;9.65;111.65
584;HTU21D;27024;54.068;12.116;2023-02-11T12:56:56;9.63;111.33
584;HTU21D;27024;54.068;12.116;2023-02-11T13:04:53;9.92;109.96
584;HTU21D;27024;54.068;12.116;2023-02-11T13:07:34;9.85;109.96
584;HTU21D;27024;54.068;12.116;2023-02-11T13:10:54;9.93;109.46
584;HTU21D;27024;54.068;12.116;2023-02-11T13:12:55;10.01;108.69
584;HTU21D;27024;54.068;12.116;2023-02-11T13:16:01;10.07;108.44
584;HTU21D;27024;54.068;12.116;2023-02-11T13:22:07;9.97;108.87
584;HTU21D;27024;54.068;12.116;2023-02-11T13:28:04;10.36;107.00
584;HTU21D;27024;54.068;12.116;2023-02-11T13:30:37;10.27;106.78
584;HTU21D;27024;54.068;12.116;2023-02-11T13:33:20;10.39;106.66
584;HTU21D;27024;54.068;12.116;2023-02-11T13:38:25;10.11;108.05
584;HTU21D;27024;54.068;12.116;2023-02-11T13:43:34;10.21;107.60
584;HTU21D;27024;54.068;12.116;2023-02-11T13:46:04;10.22;107.49
584;HTU21D;27024;54.068;12.116;2023-02-11T13:48:44;10.10;108.31
584;HTU21D;27024;54.068;12.116;2023-02-11T13:51:14;10.34;106.97
584;HTU21D;27024;54.068;12.116;2023-02-11T13:53:53;10.43;106.92
584;HTU21D;27024;54.068;12.116;2023-02-11T13:59:00;10.28;107.53
584;HTU21D;27024;54.068;12.116;2023-02-11T14:04:23;10.27;106.87
584;HTU21D;27024;54.068;12.116;2023-02-11T14:07:29;10.36;106.54
584;HTU21D;27024;54.068;12.116;2023-02-11T14:16:05;10.34;106.42
584;HTU21D;27024;54.068;12.116;2023-02-11T14:18:37;10.54;105.41
584;HTU21D;27024;54.068;12.116;2023-02-11T14:21:33;10.44;106.26
584;HTU21D;27024;54.068;12.116;2023-02-11T14:27:00;10.42;106.64
584;HTU21D;27024;54.068;12.116;2023-02-11T14:40:48;10.33;106.53
584;HTU21D;27024;54.068;12.116;2023-02-11T14:43:21;10.25;106.80
584;HTU21D;27024;54.068;12.116;2023-02-11T14:45:55;10.22;107.26
584;HTU21D;27024;54.068;12.116;2023-02-11T14:48:29;10.12;107.26
584;HTU21D;27024;54.068;12.116;2023-02-11T14:51:01;9.99;108.13
584;HTU21D;27024;54.068;12.116;2023-02-11T14:53:30;9.81;109.06
584;HTU21D;27024;54.068;12.116;2023-02-11T14:55:58;9.96;108.14
584;HTU21D;27024;54.068;12.116;2023-02-11T14:58:29;9.86;108.20
584;HTU21D;27024;54.068;12.116;2023-02-11T15:00:58;9.86;108.38
584;HTU21D;27024;54.068;12.116;2023-02-11T15:03:38;9.65;109.66
584;HTU21D;27024;54.068;12.116;2023-02-11T15:06:20;9.57;110.51
584;HTU21D;27024;54.068;12.116;2023-02-11T15:08:51;9.50;110.90
584;HTU21D;27024;54.068;12.116;2023-02-11T15:11:21;9.39;111.61
584;HTU21D;27024;54.068;12.116;2023-02-11T15:13:50;9.41;111.39
584;HTU21D;27024;54.068;12.116;2023-02-11T15:16:26;9.41;111.40
584;HTU21D;27024;54.068;12.116;2023-02-11T15:18:55;9.38;111.50
584;HTU21D;27024;54.068;12.116;2023-02-11T15:21:27;9.38;111.37
584;HTU21D;27024;54.068;12.116;2023-02-11T15:24:26;9.30;111.71
584;HTU21D;27024;54.068;12.116;2023-02-11T15:26:59;9.37;111.37
584;HTU21D;27024;54.068;12.116;2023-02-11T15:29:37;9.26;112.11
584;HTU21D;27024;54.068;12.116;2023-02-11T15:32:12;9.19;112.16
584;HTU21D;27024;54.068;12.116;2023-02-11T15:34:41;9.10;112.73
584;HTU21D;27024;54.068;12.116;2023-02-11T15:37:28;9.06;112.90
584;HTU21D;27024;54.068;12.116;2023-02-11T15:40:17;8.98;113.13
584;HTU21D;27024;54.068;12.116;2023-02-11T15:43:05;8.93;113.59
584;HTU21D;27024;54.068;12.116;2023-02-11T15:45:33;8.94;113.42
584;HTU21D;27024;54.068;12.116;2023-02-11T15:48:05;8.91;113.96
584;HTU21D;27024;54.068;12.116;2023-02-11T15:50:34;8.89;114.24
584;HTU21D;27024;54.068;12.116;2023-02-11T15:53:22;8.83;114.32
584;HTU21D;27024;54.068;12.116;2023-02-11T15:55:51;8.83;114.07
584;HTU21D;27024;54.068;12.116;2023-02-11T15:58:20;8.76;113.91
584;HTU21D;27024;54.068;12.116;2023-02-11T16:00:50;8.78;113.96
584;HTU21D;27024;54.068;12.116;2023-02-11T16:03:22;8.71;113.86
584;HTU21D;27024;54.068;12.116;2023-02-11T16:05:50;8.70;113.69
584;HTU21D;27024;54.068;12.116;2023-02-11T16:08:27;8.66;113.54
584;HTU21D;27024;54.068;12.116;2023-02-11T16:10:59;8.64;113.07
584;HTU21D;27024;54.068;12.116;2023-02-11T16:13:29;8.46;113.60
584;HTU21D;27024;54.068;12.116;2023-02-11T16:16:03;8.50;113.12
584;HTU21D;27024;54.068;12.116;2023-02-11T16:18:38;8.50;113.02
584;HTU21D;27024;54.068;12.116;2023-02-11T16:21:29;8.52;112.52
584;HTU21D;27024;54.068;12.116;2023-02-11T16:23:58;8.30;113.42
584;HTU21D;27024;54.068;12.116;2023-02-11T16:26:37;8.45;112.39
584;HTU21D;27024;54.068;12.116;2023-02-11T16:29:15;8.39;112.23
584;HTU21D;27024;54.068;12.116;2023-02-11T16:31:45;8.24;113.06
584;HTU21D;27024;54.068;12.116;2023-02-11T16:36:41;8.39;111.60
584;HTU21D;27024;54.068;12.116;2023-02-11T16:39:08;8.32;111.61
584;HTU21D;27024;54.068;12.116;2023-02-11T16:41:35;8.18;111.92
584;HTU21D;27024;54.068;12.116;2023-02-11T16:44:02;8.24;111.53
584;HTU21D;27024;54.068;12.116;2023-02-11T16:46:30;8.33;110.86
584;HTU21D;27024;54.068;12.116;2023-02-11T16:48:59;8.22;111.07
584;HTU21D;27024;54.068;12.116;2023-02-11T16:51:31;8.29;110.57
584;HTU21D;27024;54.068;12.116;2023-02-11T16:53:57;8.16;111.05
584;HTU21D;27024;54.068;12.116;2023-02-11T16:56:24;8.13;111.29
584;HTU21D;27024;54.068;12.116;2023-02-11T16:58:51;8.16;111.34
584;HTU21D;27024;54.068;12.116;2023-02-11T17:01:18;8.00;112.04
584;HTU21D;27024;54.068;12.116;2023-02-11T17:03:45;7.97;112.20
584;HTU21D;27024;54.068;12.116;2023-02-11T17:06:12;7.87;112.61
584;HTU21D;27024;54.068;12.116;2023-02-11T17:08:39;7.89;112.74
584;HTU21D;27024;54.068;12.116;2023-02-11T17:11:06;7.84;112.58
584;HTU21D;27024;54.068;12.116;2023-02-11T17:13:33;7.84;112.82
584;HTU21D;27024;54.068;12.116;2023-02-11T17:16:02;7.89;112.26
584;HTU21D;27024;54.068;12.116;2023-02-11T17:18:28;7.79;112.61
584;HTU21D;27024;54.068;12.116;2023-02-11T17:20:55;7.74;113.28
584;HTU21D;27024;54.068;12.116;2023-02-11T17:23:22;7.72;113.21
584;HTU21D;27024;54.068;12.116;2023-02-11T17:25:56;7.68;113.42
584;HTU21D;27024;54.068;12.116;2023-02-11T17:28:23;7.78;112.97
584;HTU21D;27024;54.068;12.116;2023-02-11T17:30:49;7.70;113.40
584;HTU21D;27024;54.068;12.116;2023-02-11T17:33:17;7.79;113.16
584;HTU21D;27024;54.068;12.116;2023-02-11T17:35:45;7.78;113.14
584;HTU21D;27024;54.068;12.116;2023-02-11T17:38:11;7.65;113.87
584;HTU21D;27024;54.068;12.116;2023-02-11T17:40:38;7.70;113.45
584;HTU21D;27024;54.068;12.116;2023-02-11T17:43:05;7.68;113.30
584;HTU21D;27024;54.068;12.116;2023-02-11T17:45:32;7.76;113.43
584;HTU21D;27024;54.068;12.116;2023-02-11T17:47:59;7.67;113.68
584;HTU21D;27024;54.068;12.116;2023-02-11T17:50:26;7.65;113.64
584;HTU21D;27024;54.068;12.116;2023-02-11T17:52:55;7.68;113.64
584;HTU21D;27024;54.068;12.116;2023-02-11T17:55:22;7.64;113.75
584;HTU21D;27024;54.068;12.116;2023-02-11T17:57:49;7.57;114.08
584;HTU21D;27024;54.068;12.116;2023-02-11T18:00:16;7.60;113.90
584;HTU21D;27024;54.068;12.116;2023-02-11T18:02:43;7.55;114.33
584;HTU21D;27024;54.068;12.116;2023-02-11T18:05:10;7.53;114.60
584;HTU21D;27024;54.068;12.116;2023-02-11T18:07:37;7.61;114.12
584;HTU21D;27024;54.068;12.116;2023-02-11T18:10:05;7.65;114.05
584;HTU21D;27024;54.068;12.116;2023-02-11T18:12:32;7.62;114.11
584;HTU21D;27024;54.068;12.116;2023-02-11T18:14:59;7.61;114.26
584;HTU21D;27024;54.068;12.116;2023-02-11T18:17:26;7.68;113.99
584;HTU21D;27024;54.068;12.116;2023-02-11T18:19:55;7.75;113.39